Time;durP1;ratioP1;P1;durP2;ratioP2;P2;SDS_P1;SDS_P2;PMS_P1;PMS_P2;Temp;Humidity;BMP_temperature;BMP_pressure;BME280_temperature;BME280_humidity;BME280_pressure;Samples;Min_cycle;Max_cycle;Signal;HPM_P1;HPM_P2
2021/01/04 00:05:16;;;;;;;40.90;26.42;;;;;;;3.89;81.22;97290.00;10138952;29;20501;-76
2021/01/04 00:10:36;;;;;;;38.95;25.50;;;;;;;3.93;80.80;97293.09;10126887;29;20064;-75
2021/01/04 00:16:19;;;;;;;43.55;26.45;;;;;;;3.92;80.52;97289.59;10156893;29;20487;-75
2021/01/04 00:22:05;;;;;;;42.28;26.20;;;;;;;3.94;80.99;97283.50;10167599;29;20427;-76
2021/01/04 00:28:10;;;;;;;40.20;26.00;;;;;;;3.95;80.71;97284.97;10181834;29;20064;-76
2021/01/04 00:33:47;;;;;;;38.10;25.63;;;;;;;3.93;80.83;97276.53;10154118;29;20055;-76
2021/01/04 00:39:46;;;;;;;39.45;25.80;;;;;;;3.91;80.76;97285.38;10155238;29;20067;-76
2021/01/04 00:45:18;;;;;;;43.03;27.83;;;;;;;3.94;80.67;97286.25;10169373;29;20427;-75
2021/01/04 00:51:05;;;;;;;45.50;28.27;;;;;;;3.92;80.70;97294.38;10156070;29;20561;-75
2021/01/04 00:56:44;;;;;;;44.03;28.23;;;;;;;3.89;80.86;97303.81;10181791;29;20075;-76
2021/01/04 01:02:35;;;;;;;41.20;25.88;;;;;;;3.91;80.88;97306.72;10153882;29;20063;-75
2021/01/04 01:08:16;;;;;;;42.70;26.85;;;;;;;3.90;81.07;97305.25;10180182;29;20056;-76
2021/01/04 01:14:21;;;;;;;42.58;27.17;;;;;;;3.88;80.96;97303.06;10180923;29;20088;-76
2021/01/04 01:19:49;;;;;;;44.17;28.00;;;;;;;3.91;80.70;97309.50;10166300;29;20075;-75
2021/01/04 01:25:14;;;;;;;44.00;27.40;;;;;;;3.90;80.36;97303.22;10166130;29;20067;-76
2021/01/04 01:30:52;;;;;;;44.35;26.75;;;;;;;3.92;80.54;97308.19;10191800;29;20060;-76
2021/01/04 01:36:54;;;;;;;44.10;27.80;;;;;;;3.92;80.52;97316.47;10165232;29;20070;-76
2021/01/04 01:42:41;;;;;;;46.35;27.60;;;;;;;3.91;80.69;97321.25;10165310;29;20527;-76
2021/01/04 01:48:11;;;;;;;44.55;27.13;;;;;;;3.92;80.87;97319.25;10179240;29;20495;-76
2021/01/04 01:54:12;;;;;;;53.40;26.88;;;;;;;3.96;80.71;97319.59;10151334;29;20067;-76
2021/01/04 02:00:13;;;;;;;45.08;27.08;;;;;;;3.97;80.60;97321.06;10166502;29;20070;-76
2021/01/04 02:06:38;;;;;;;43.03;26.10;;;;;;;3.97;80.50;97326.59;10176619;29;20107;-76
2021/01/04 02:12:44;;;;;;;46.85;26.95;;;;;;;3.95;80.54;97324.38;10175400;29;20060;-76
2021/01/04 02:18:42;;;;;;;;;;;;;;;3.93;80.14;97323.47;10167455;29;20558;-76
2021/01/04 02:24:09;;;;;;;42.88;25.40;;;;;;;3.91;80.73;97317.78;10170730;29;19923;-76
2021/01/04 02:29:28;;;;;;;44.97;26.92;;;;;;;3.87;80.45;97322.97;10164221;29;20114;-75
2021/01/04 02:34:54;;;;;;;43.63;26.30;;;;;;;3.88;80.68;97324.41;10164257;29;20060;-75
2021/01/04 02:40:14;;;;;;;42.72;26.02;;;;;;;3.88;80.95;97318.91;10164160;29;20139;-75
2021/01/04 02:45:34;;;;;;;41.20;24.15;;;;;;;3.87;80.20;97322.97;10136973;29;20451;-76
2021/01/04 02:51:06;;;;;;;42.20;24.60;;;;;;;3.83;80.31;97319.84;10178021;29;20059;-76
2021/01/04 02:56:28;;;;;;;40.30;25.20;;;;;;;3.86;80.68;97315.94;10162762;29;20059;-76
2021/01/04 03:02:02;;;;;;;40.20;23.50;;;;;;;3.82;80.43;97313.56;10176801;29;20064;-76
2021/01/04 03:07:30;;;;;;;44.57;26.73;;;;;;;3.81;80.20;97322.44;10150909;29;20056;-76
2021/01/04 03:13:28;;;;;;;42.20;25.25;;;;;;;3.78;79.78;97320.78;10149227;29;20170;-76
2021/01/04 03:18:55;;;;;;;43.08;25.42;;;;;;;3.72;80.50;97330.00;10163500;29;20067;-76
2021/01/04 03:24:16;;;;;;;43.53;25.70;;;;;;;3.76;80.76;97317.84;10150942;29;20143;-76
2021/01/04 03:29:36;;;;;;;45.92;26.83;;;;;;;3.79;80.34;97322.25;10176379;29;20074;-76
2021/01/04 03:34:55;;;;;;;46.35;26.45;;;;;;;3.79;80.60;97322.25;10163105;29;20164;-76
2021/01/04 03:40:16;;;;;;;44.63;26.20;;;;;;;3.82;80.25;97326.66;10179066;29;20525;-76
2021/01/04 03:45:36;;;;;;;43.67;26.40;;;;;;;3.82;79.99;97329.41;10169511;29;20455;-76
2021/01/04 03:50:55;;;;;;;48.78;27.05;;;;;;;3.76;80.36;97324.09;10184052;29;20071;-76
2021/01/04 03:56:20;;;;;;;43.40;25.55;;;;;;;3.76;79.99;97318.56;10168905;29;20068;-76
2021/01/04 04:01:55;;;;;;;42.63;25.30;;;;;;;3.66;80.29;97310.16;10183806;29;20095;-76
2021/01/04 04:07:15;;;;;;;46.20;27.20;;;;;;;3.60;80.40;97312.41;10157089;29;20459;-76
2021/01/04 04:12:35;;;;;;;43.22;25.98;;;;;;;3.65;80.42;97324.50;10168038;29;20063;-76
2021/01/04 04:17:55;;;;;;;44.50;25.20;;;;;;;3.66;79.75;97323.94;10181655;29;20068;-75
2021/01/04 04:23:15;;;;;;;44.20;25.38;;;;;;;3.65;80.04;97314.19;10182789;29;20420;-76
2021/01/04 04:28:35;;;;;;;40.03;23.52;;;;;;;3.57;80.14;97318.28;10155403;29;20060;-76
2021/01/04 04:33:54;;;;;;;41.28;24.13;;;;;;;3.56;80.16;97312.03;10167236;29;20155;-76
2021/01/04 04:39:15;;;;;;;35.63;21.75;;;;;;;3.51;80.14;97315.75;10194718;29;20075;-76
2021/01/04 04:44:55;;;;;;;36.75;22.08;;;;;;;3.47;80.30;97318.13;10153799;29;20064;-76
2021/01/04 04:50:40;;;;;;;34.15;21.92;;;;;;;3.49;80.20;97306.56;10156110;29;20135;-76
2021/01/04 04:56:35;;;;;;;37.03;21.85;;;;;;;3.53;80.51;97318.66;10143867;29;20529;-75
2021/01/04 05:02:15;;;;;;;35.42;21.42;;;;;;;3.48;80.20;97316.88;10128597;29;20471;-76
2021/01/04 05:07:43;;;;;;;39.20;22.20;;;;;;;3.47;79.99;97303.59;10126911;29;20064;-76
2021/01/04 05:13:20;;;;;;;40.42;24.17;;;;;;;3.32;79.76;97315.44;10127549;29;20061;-76
2021/01/04 05:19:10;;;;;;;40.58;22.85;;;;;;;3.23;80.54;97311.22;10127092;29;20415;-76
2021/01/04 05:25:11;;;;;;;37.78;22.40;;;;;;;3.28;80.11;97304.78;10126686;29;20139;-75
2021/01/04 05:31:07;;;;;;;37.03;21.73;;;;;;;3.28;80.29;97323.34;10126320;29;20066;-75
2021/01/04 05:37:13;;;;;;;35.90;22.25;;;;;;;3.22;80.53;97328.34;10128527;29;20060;-75
2021/01/04 05:42:44;;;;;;;33.83;21.20;;;;;;;3.26;80.34;97323.16;10140096;29;20061;-76
2021/01/04 05:48:33;;;;;;;36.05;21.33;;;;;;;3.35;80.34;97323.31;10126828;29;20060;-76
2021/01/04 05:53:53;;;;;;;35.03;22.20;;;;;;;3.42;80.36;97324.59;10128047;29;20060;-76
2021/01/04 05:59:14;;;;;;;34.70;21.77;;;;;;;3.47;80.26;97331.19;10125255;29;20413;-76
2021/01/04 06:04:34;;;;;;;34.88;19.95;;;;;;;3.48;80.07;97347.22;10138589;29;20056;-76
2021/01/04 06:09:56;;;;;;;35.10;20.20;;;;;;;3.47;80.22;97342.97;10111945;29;20089;-76
2021/01/04 06:15:34;;;;;;;35.92;21.77;;;;;;;3.49;79.82;97362.47;10151433;29;20120;-76
2021/01/04 06:20:54;;;;;;;33.67;19.92;;;;;;;3.52;79.83;97355.84;10127090;29;20080;-76
2021/01/04 06:26:23;;;;;;;30.67;19.10;;;;;;;3.55;80.30;97365.03;10139481;29;20135;-76
2021/01/04 06:31:45;;;;;;;29.08;18.88;;;;;;;3.55;80.08;97365.75;10138200;29;20063;-76
2021/01/04 06:37:15;;;;;;;31.40;19.38;;;;;;;3.56;80.11;97372.75;10125027;29;20152;-76
2021/01/04 06:42:41;;;;;;;29.92;18.48;;;;;;;3.60;80.09;97384.16;10124615;29;20131;-76
2021/01/04 06:48:19;;;;;;;32.15;19.30;;;;;;;3.55;79.86;97376.78;10124571;29;20147;-76
2021/01/04 06:54:09;;;;;;;31.38;19.55;;;;;;;3.57;79.88;97376.25;10123999;29;20414;-76
2021/01/04 06:59:35;;;;;;;33.40;20.88;;;;;;;3.55;79.66;97376.06;10137937;29;20115;-76
2021/01/04 07:05:13;;;;;;;29.95;19.10;;;;;;;3.59;79.98;97385.44;10138380;29;20570;-76
2021/01/04 07:10:36;;;;;;;30.45;18.73;;;;;;;3.62;80.10;97386.34;10137363;29;20439;-76
2021/01/04 07:16:10;;;;;;;30.50;18.95;;;;;;;3.67;79.71;97393.72;10156163;29;20068;-76
2021/01/04 07:21:33;;;;;;;29.92;19.15;;;;;;;3.69;79.34;97402.91;10154725;29;20541;-76
2021/01/04 07:27:30;;;;;;;33.40;20.65;;;;;;;3.72;80.05;97396.25;10190195;29;20065;-75
2021/01/04 07:33:18;;;;;;;30.90;19.60;;;;;;;3.78;80.09;97387.06;10184873;29;20064;-76
2021/01/04 07:38:56;;;;;;;30.98;20.13;;;;;;;3.83;80.19;97395.13;10178413;29;20091;-75
2021/01/04 07:44:49;;;;;;;34.10;20.38;;;;;;;3.83;79.59;97405.44;10171135;29;20116;-76
2021/01/04 07:50:57;;;;;;;36.47;21.67;;;;;;;3.88;80.19;97401.75;10174429;29;20088;-76
2021/01/04 07:56:56;;;;;;;33.90;20.25;;;;;;;3.87;79.93;97414.81;10183422;29;20115;-76
2021/01/04 08:02:36;;;;;;;35.53;21.15;;;;;;;3.88;80.06;97415.53;10183874;29;20063;-76
2021/01/04 08:08:30;;;;;;;34.80;21.50;;;;;;;3.88;79.91;97424.56;10167981;29;20147;-76
2021/01/04 08:14:24;;;;;;;35.33;21.38;;;;;;;3.88;79.50;97426.59;10139401;29;20087;-76
2021/01/04 08:19:44;;;;;;;37.70;22.67;;;;;;;3.82;79.47;97426.03;10182069;29;20064;-76
2021/01/04 08:25:46;;;;;;;37.03;22.10;;;;;;;3.80;79.32;97418.31;10127224;29;20392;-76
2021/01/04 08:31:51;;;;;;;35.00;21.70;;;;;;;3.91;79.44;97422.72;10060631;29;20058;-76
2021/01/04 08:37:34;;;;;;;38.40;23.60;;;;;;;4.00;79.47;97422.13;10048939;29;20510;-76
2021/01/04 08:43:10;;;;;;;36.33;21.25;;;;;;;4.13;79.34;97419.13;10071805;29;20140;-76
2021/01/04 08:48:36;;;;;;;39.55;22.45;;;;;;;4.23;78.95;97425.50;10098678;29;20065;-77
2021/01/04 08:54:11;;;;;;;40.05;21.77;;;;;;;4.34;79.10;97426.38;10087337;29;20124;-78
2021/01/04 08:59:34;;;;;;;40.13;23.42;;;;;;;4.45;79.40;97425.97;10125579;29;20147;-76
2021/01/04 09:04:59;;;;;;;38.60;22.10;;;;;;;4.52;79.03;97433.47;10089102;29;20060;-76
2021/01/04 09:10:23;;;;;;;37.60;22.00;;;;;;;4.63;79.00;97433.03;10088457;29;20403;-76
2021/01/04 09:15:43;;;;;;;38.53;21.65;;;;;;;4.69;79.14;97424.53;10101229;29;20065;-76
2021/01/04 09:21:17;;;;;;;40.28;22.75;;;;;;;4.70;78.96;97431.53;10101998;29;20392;-76
2021/01/04 09:26:39;;;;;;;39.45;23.13;;;;;;;4.88;78.39;97425.50;10089498;29;20139;-76
2021/01/04 09:32:04;;;;;;;40.50;23.88;;;;;;;5.02;78.21;97430.75;10100803;29;20515;-76
2021/01/04 09:37:26;;;;;;;36.42;20.95;;;;;;;5.16;78.42;97426.41;10101085;29;20093;-76
2021/01/04 09:42:49;;;;;;;34.30;21.10;;;;;;;5.47;78.33;97419.28;10088184;29;20126;-77
2021/01/04 09:48:24;;;;;;;37.35;20.88;;;;;;;5.66;77.86;97412.47;10114407;29;20067;-76
2021/01/04 09:53:52;;;;;;;34.38;20.55;;;;;;;5.62;77.53;97414.91;10099800;29;20060;-79
2021/01/04 09:59:19;;;;;;;37.65;21.13;;;;;;;5.57;77.96;97408.31;10100848;29;20065;-76
2021/01/04 10:04:42;;;;;;;32.58;20.38;;;;;;;5.45;77.60;97418.41;10113008;29;20069;-76
2021/01/04 10:10:12;;;;;;;30.55;18.90;;;;;;;5.38;77.70;97408.84;10101089;29;20067;-76
2021/01/04 10:15:32;;;;;;;28.40;18.50;;;;;;;5.49;77.35;97410.41;10112130;29;20112;-76
2021/01/04 10:20:52;;;;;;;28.80;18.63;;;;;;;5.38;77.37;97411.63;10112968;29;20064;-77
2021/01/04 10:26:12;;;;;;;29.75;19.45;;;;;;;5.64;77.47;97401.22;10087114;29;20095;-76
2021/01/04 10:31:35;;;;;;;28.67;18.80;;;;;;;6.06;76.90;97405.94;10100650;29;20061;-76
2021/01/04 10:37:04;;;;;;;28.63;18.60;;;;;;;6.39;76.61;97398.88;10099182;29;20065;-76
2021/01/04 10:42:24;;;;;;;27.02;17.90;;;;;;;6.26;76.39;97391.66;10098981;29;20140;-76
2021/01/04 10:47:54;;;;;;;28.00;17.85;;;;;;;6.11;76.24;97394.63;10089208;29;20056;-76
2021/01/04 10:53:36;;;;;;;25.17;17.23;;;;;;;5.81;75.99;97384.63;10107806;29;20077;-74
2021/01/04 10:59:23;;;;;;;28.23;18.48;;;;;;;5.58;76.14;97373.78;10104576;29;20069;-75
2021/01/04 11:04:53;;;;;;;28.73;20.30;;;;;;;5.51;76.58;97371.84;10103989;29;20064;-75
2021/01/04 11:10:28;;;;;;;29.88;19.10;;;;;;;5.42;76.44;97376.00;10091736;29;20451;-75
2021/01/04 11:15:48;;;;;;;27.80;18.85;;;;;;;5.25;76.43;97375.97;10117588;29;20069;-76
2021/01/04 11:21:08;;;;;;;25.80;17.88;;;;;;;5.09;76.25;97380.91;10105358;29;20468;-76
2021/01/04 11:26:27;;;;;;;28.00;18.80;;;;;;;4.84;76.64;97386.47;10104401;29;20091;-75
2021/01/04 11:31:47;;;;;;;27.33;19.33;;;;;;;4.74;76.62;97382.84;10106921;29;20089;-76
2021/01/04 11:37:07;;;;;;;28.95;18.80;;;;;;;4.64;76.67;97386.81;10105301;29;20137;-77
2021/01/04 11:42:27;;;;;;;26.45;19.23;;;;;;;4.71;76.47;97389.50;10104529;29;20105;-77
2021/01/04 11:47:47;;;;;;;28.48;19.65;;;;;;;4.80;76.61;97379.84;10111478;29;20068;-80
2021/01/04 11:53:07;;;;;;;25.95;18.33;;;;;;;4.81;76.29;97375.78;10094573;29;20376;-79
2021/01/04 11:58:27;;;;;;;24.52;17.95;;;;;;;4.81;76.29;97375.78;10106785;29;20140;-78
2021/01/04 12:03:46;;;;;;;27.98;19.05;;;;;;;4.79;76.55;97373.59;10103917;29;20144;-77
2021/01/04 12:09:08;;;;;;;30.50;20.20;;;;;;;4.68;76.68;97365.00;10116070;29;20120;-78
2021/01/04 12:14:28;;;;;;;33.38;20.98;;;;;;;4.64;76.56;97362.66;10103913;29;20092;-78
2021/01/04 12:19:48;;;;;;;31.80;19.85;;;;;;;4.59;76.82;97361.56;10089941;29;20175;-77
2021/01/04 12:25:09;;;;;;;33.88;21.70;;;;;;;4.67;76.79;97367.03;10104483;29;20080;-78
2021/01/04 12:30:29;;;;;;;31.75;19.58;;;;;;;4.70;76.15;97370.69;10089447;29;20117;-78
2021/01/04 12:35:49;;;;;;;29.75;19.17;;;;;;;4.74;76.25;97360.00;10102821;29;20380;-78
2021/01/04 12:41:09;;;;;;;27.45;17.48;;;;;;;4.70;76.43;97365.91;10094007;29;20072;-78
2021/01/04 12:46:29;;;;;;;27.20;17.40;;;;;;;4.85;76.03;97354.00;10102323;29;20415;-77
2021/01/04 12:51:54;;;;;;;30.33;18.65;;;;;;;5.12;76.22;97356.91;10102563;29;20061;-75
2021/01/04 12:57:14;;;;;;;27.70;18.98;;;;;;;5.24;76.15;97346.09;10105192;29;20146;-76
2021/01/04 13:02:34;;;;;;;27.85;18.58;;;;;;;5.15;76.12;97337.13;10114258;29;20061;-76
2021/01/04 13:07:57;;;;;;;26.45;17.27;;;;;;;5.05;76.08;97349.41;10153602;29;20056;-76
2021/01/04 13:13:18;;;;;;;26.20;17.63;;;;;;;4.95;75.78;97346.53;10111215;29;20057;-76
2021/01/04 13:18:38;;;;;;;29.52;18.50;;;;;;;4.90;76.06;97347.50;10127324;29;20092;-76
2021/01/04 13:23:57;;;;;;;27.92;18.05;;;;;;;4.91;76.48;97345.47;10143495;29;20072;-76
2021/01/04 13:29:23;;;;;;;27.20;18.70;;;;;;;4.91;76.12;97346.19;10145596;29;20104;-77
2021/01/04 13:34:44;;;;;;;28.08;17.42;;;;;;;4.87;75.79;97348.63;10155240;29;20429;-76
2021/01/04 13:40:05;;;;;;;26.65;17.77;;;;;;;4.78;76.28;97355.53;10141083;29;20499;-75
2021/01/04 13:45:25;;;;;;;26.75;17.80;;;;;;;4.67;75.91;97358.00;10140950;29;20130;-76
2021/01/04 13:50:46;;;;;;;28.75;17.67;;;;;;;4.59;76.52;97356.03;10155146;29;20072;-76
2021/01/04 13:56:08;;;;;;;31.30;19.25;;;;;;;4.54;76.61;97362.53;10157341;29;20139;-76
2021/01/04 14:01:29;;;;;;;29.95;20.05;;;;;;;4.54;76.43;97367.31;10119034;29;20071;-76
2021/01/04 14:06:50;;;;;;;27.92;18.73;;;;;;;4.49;76.40;97357.94;10129006;29;20395;-76
2021/01/04 14:12:10;;;;;;;27.80;18.33;;;;;;;4.47;76.29;97357.06;10130108;29;20080;-76
2021/01/04 14:17:30;;;;;;;29.45;18.95;;;;;;;4.44;76.69;97360.91;10141923;29;20487;-76
2021/01/04 14:22:50;;;;;;;31.70;20.40;;;;;;;4.40;76.47;97361.31;10155575;29;20060;-76
2021/01/04 14:28:10;;;;;;;32.17;19.65;;;;;;;4.42;76.83;97349.69;10155911;29;20067;-76
2021/01/04 14:33:30;;;;;;;28.25;18.67;;;;;;;4.43;76.58;97351.91;10154209;29;20107;-76
2021/01/04 14:38:50;;;;;;;28.90;19.05;;;;;;;4.42;77.01;97352.47;10151562;29;20068;-75
2021/01/04 14:44:13;;;;;;;35.50;21.67;;;;;;;4.41;76.82;97356.53;10164948;29;20064;-76
2021/01/04 14:49:32;;;;;;;29.67;20.17;;;;;;;4.34;77.38;97354.53;10163328;29;20060;-78
2021/01/04 14:54:52;;;;;;;30.40;20.52;;;;;;;4.37;76.95;97358.97;10177051;29;20071;-76
2021/01/04 15:00:13;;;;;;;28.02;19.70;;;;;;;4.39;76.98;97343.28;10190564;29;20068;-76
2021/01/04 15:05:34;;;;;;;31.27;20.88;;;;;;;4.37;77.29;97345.13;10176953;29;20060;-76
2021/01/04 15:10:53;;;;;;;33.92;21.52;;;;;;;4.35;77.33;97353.25;10177463;29;20063;-76
2021/01/04 15:16:17;;;;;;;32.20;21.30;;;;;;;4.31;76.93;97348.84;10176595;29;20529;-76
2021/01/04 15:21:37;;;;;;;32.33;21.40;;;;;;;4.35;76.69;97354.00;10163066;29;20060;-76
2021/01/04 15:26:57;;;;;;;31.73;21.25;;;;;;;4.30;77.07;97350.16;10177822;29;20066;-76
2021/01/04 15:32:21;;;;;;;30.83;22.48;;;;;;;4.27;77.18;97356.81;10149140;29;20071;-76
2021/01/04 15:37:41;;;;;;;33.73;22.20;;;;;;;4.25;77.65;97348.34;10156732;29;20063;-77
2021/01/04 15:43:01;;;;;;;31.88;22.15;;;;;;;4.23;77.90;97341.91;10170194;29;20059;-77
2021/01/04 15:48:21;;;;;;;31.45;22.08;;;;;;;4.24;77.39;97349.63;10170676;29;20088;-76
2021/01/04 15:53:41;;;;;;;29.60;21.02;;;;;;;4.23;77.45;97353.69;10169125;29;20075;-76
2021/01/04 15:59:00;;;;;;;31.30;20.05;;;;;;;4.21;77.71;97345.22;10169992;29;20067;-76
2021/01/04 16:04:22;;;;;;;31.48;19.83;;;;;;;4.15;77.42;97350.25;10169202;29;20155;-75
2021/01/04 16:09:42;;;;;;;32.70;20.58;;;;;;;4.13;77.82;97350.06;10169050;29;20089;-77
2021/01/04 16:15:04;;;;;;;30.92;21.63;;;;;;;4.09;78.11;97335.91;10155159;29;20062;-77
2021/01/04 16:20:25;;;;;;;33.88;22.35;;;;;;;4.12;78.47;97345.09;10171885;29;20095;-78
2021/01/04 16:25:54;;;;;;;34.25;22.52;;;;;;;4.16;77.69;97354.47;10143595;29;20091;-77
2021/01/04 16:31:20;;;;;;;32.83;22.13;;;;;;;4.17;78.14;97350.41;10180507;29;20060;-77
2021/01/04 16:36:40;;;;;;;36.85;23.52;;;;;;;4.20;78.28;97348.56;10175897;29;20060;-76
2021/01/04 16:42:03;;;;;;;36.15;22.48;;;;;;;4.25;78.26;97348.34;10166018;29;20103;-76
2021/01/04 16:47:23;;;;;;;36.33;22.38;;;;;;;4.21;77.96;97353.50;10180480;29;20067;-76
2021/01/04 16:52:43;;;;;;;30.98;20.67;;;;;;;4.21;78.28;97344.50;10136493;29;20511;-76
2021/01/04 16:58:03;;;;;;;32.13;21.08;;;;;;;4.21;78.19;97334.16;10179917;29;20056;-75
2021/01/04 17:03:23;;;;;;;34.58;21.40;;;;;;;4.20;78.42;97338.22;10179414;29;20087;-75
2021/01/04 17:08:52;;;;;;;31.67;21.50;;;;;;;4.20;78.52;97343.75;10179270;29;20565;-75
2021/01/04 17:14:14;;;;;;;34.45;23.67;;;;;;;4.21;78.31;97347.25;10178969;29;20062;-76
2021/01/04 17:19:34;;;;;;;30.10;20.88;;;;;;;4.20;78.03;97345.78;10164751;29;20075;-76
2021/01/04 17:24:54;;;;;;;34.50;22.83;;;;;;;4.18;78.58;97349.13;10165409;29;20166;-77
2021/01/04 17:30:14;;;;;;;34.08;21.92;;;;;;;4.24;78.04;97337.84;10178898;29;20083;-76
2021/01/04 17:35:35;;;;;;;31.33;20.52;;;;;;;4.23;78.02;97347.41;10178681;29;20135;-76
2021/01/04 17:40:55;;;;;;;32.67;21.27;;;;;;;4.15;78.94;97346.72;10191317;29;20123;-77
2021/01/04 17:46:27;;;;;;;31.50;20.40;;;;;;;4.17;78.60;97346.91;10179173;29;20063;-77
2021/01/04 17:52:13;;;;;;;30.48;20.13;;;;;;;4.19;78.77;97333.28;10167410;29;20083;-81
2021/01/04 17:58:01;;;;;;;33.10;21.83;;;;;;;4.13;78.74;97343.78;10171885;29;20494;-79
2021/01/04 18:03:21;;;;;;;35.25;21.73;;;;;;;4.16;78.61;97346.19;10158574;29;20376;-78
2021/01/04 18:08:41;;;;;;;32.97;22.50;;;;;;;4.15;78.88;97344.72;10137407;29;20056;-77
2021/01/04 18:14:11;;;;;;;33.10;21.67;;;;;;;4.14;78.60;97340.47;10140546;29;20044;-82
2021/01/04 18:19:33;;;;;;;33.63;22.60;;;;;;;4.12;78.55;97340.31;10155041;29;20135;-78
2021/01/04 18:24:53;;;;;;;35.17;21.98;;;;;;;4.10;78.66;97348.41;10114884;29;20407;-78
2021/01/04 18:30:13;;;;;;;35.35;22.75;;;;;;;4.13;79.17;97344.53;10137502;29;20065;-78
2021/01/04 18:35:33;;;;;;;40.03;23.40;;;;;;;4.19;78.60;97341.56;10117847;29;20150;-77
2021/01/04 18:40:53;;;;;;;38.03;23.45;;;;;;;4.14;78.88;97346.00;10136871;29;20064;-78
2021/01/04 18:46:13;;;;;;;39.22;24.08;;;;;;;4.16;78.58;97348.22;10137524;29;20061;-76
2021/01/04 18:51:39;;;;;;;35.60;23.52;;;;;;;4.17;79.10;97344.88;10137608;29;20137;-79
2021/01/04 18:56:59;;;;;;;41.17;24.02;;;;;;;4.17;79.35;97342.13;10132237;29;20060;-76
2021/01/04 19:02:19;;;;;;;40.15;25.08;;;;;;;4.19;78.73;97336.78;10136761;29;20064;-77
2021/01/04 19:07:41;;;;;;;38.75;24.27;;;;;;;4.24;79.15;97343.34;10140094;29;20064;-79
2021/01/04 19:13:02;;;;;;;39.40;25.58;;;;;;;4.18;79.25;97340.09;10146929;29;20060;-78
2021/01/04 19:18:25;;;;;;;42.33;25.48;;;;;;;4.23;78.98;97339.13;10128852;29;20053;-76
2021/01/04 19:23:46;;;;;;;38.13;23.33;;;;;;;4.20;79.31;97345.78;10156561;29;20128;-75
2021/01/04 19:29:07;;;;;;;42.22;25.40;;;;;;;4.18;79.14;97348.38;10130016;29;20056;-75
2021/01/04 19:34:27;;;;;;;44.35;26.27;;;;;;;4.19;79.63;97347.81;10118032;29;20475;-76
2021/01/04 19:39:46;;;;;;;42.40;26.10;;;;;;;4.19;78.94;97342.28;10143878;29;20155;-77
2021/01/04 19:45:08;;;;;;;44.75;26.63;;;;;;;4.20;79.22;97341.00;10142265;29;20152;-76
2021/01/04 19:50:28;;;;;;;41.58;26.50;;;;;;;4.24;79.13;97352.38;10143508;29;20120;-76
2021/01/04 19:55:48;;;;;;;47.05;28.08;;;;;;;4.22;78.98;97340.44;10128633;29;20143;-75
2021/01/04 20:01:07;;;;;;;46.53;28.27;;;;;;;4.22;79.37;97332.16;10142772;29;20502;-75
2021/01/04 20:06:28;;;;;;;43.08;27.75;;;;;;;4.13;78.94;97341.03;10142519;29;20068;-76
2021/01/04 20:11:48;;;;;;;40.28;26.20;;;;;;;4.12;79.16;97340.31;10144680;29;20060;-79
2021/01/04 20:17:08;;;;;;;44.42;28.58;;;;;;;4.12;79.56;97328.53;10130046;29;20407;-76
2021/01/04 20:22:28;;;;;;;43.15;27.42;;;;;;;4.14;79.63;97318.38;10135449;29;20068;-76
2021/01/04 20:27:47;;;;;;;41.70;26.15;;;;;;;4.15;79.28;97330.91;10143812;29;20065;-79
2021/01/04 20:33:07;;;;;;;42.22;26.48;;;;;;;4.15;79.51;97324.63;10127445;29;20116;-75
2021/01/04 20:38:27;;;;;;;46.83;28.30;;;;;;;4.13;79.11;97319.66;10127137;29;20068;-76
2021/01/04 20:43:48;;;;;;;42.72;27.25;;;;;;;4.11;79.63;97325.03;10126981;29;20115;-76
2021/01/04 20:49:07;;;;;;;41.08;26.05;;;;;;;4.10;79.16;97312.50;10114506;29;20056;-76
2021/01/04 20:54:27;;;;;;;40.00;26.95;;;;;;;4.11;79.42;97316.75;10129223;29;20068;-76
2021/01/04 20:59:47;;;;;;;41.42;26.60;;;;;;;4.09;79.36;97307.56;10140691;29;20095;-76
2021/01/04 21:05:09;;;;;;;45.55;27.83;;;;;;;4.09;79.72;97308.28;10140381;29;20092;-77
2021/01/04 21:10:28;;;;;;;44.42;27.73;;;;;;;4.09;79.20;97313.81;10131482;29;20056;-78
2021/01/04 21:15:48;;;;;;;44.00;28.10;;;;;;;4.07;79.80;97307.38;10147257;29;20064;-78
2021/01/04 21:21:09;;;;;;;40.00;25.90;;;;;;;4.05;80.09;97305.16;10144175;29;20142;-78
2021/01/04 21:26:31;;;;;;;39.38;25.52;;;;;;;4.02;79.41;97298.00;10161555;29;20060;-78
2021/01/04 21:31:51;;;;;;;38.55;25.63;;;;;;;3.97;79.91;97301.72;10157392;29;20061;-80
2021/01/04 21:37:11;;;;;;;38.30;24.77;;;;;;;3.95;79.61;97294.00;10144613;29;20081;-80
2021/01/04 21:42:31;;;;;;;37.15;23.42;;;;;;;3.94;79.56;97298.03;10156791;29;20414;-80
2021/01/04 21:47:51;;;;;;;38.55;25.15;;;;;;;3.91;79.85;97296.41;10140234;29;20119;-80
2021/01/04 21:53:11;;;;;;;35.40;23.85;;;;;;;3.84;80.05;97297.19;10139157;29;20120;-79
2021/01/04 21:58:31;;;;;;;39.10;24.27;;;;;;;3.84;79.33;97294.41;10151143;29;20149;-79
2021/01/04 22:03:52;;;;;;;35.65;24.10;;;;;;;3.89;79.75;97298.28;10148648;29;20060;-79
2021/01/04 22:09:12;;;;;;;33.85;22.38;;;;;;;3.83;80.05;97295.72;10134246;29;20067;-79
2021/01/04 22:14:37;;;;;;;32.55;21.25;;;;;;;3.87;79.61;97300.88;10148091;29;20064;-79
2021/01/04 22:19:57;;;;;;;31.80;21.15;;;;;;;3.86;79.97;97293.84;10118049;29;20075;-79
2021/01/04 22:25:17;;;;;;;33.00;21.08;;;;;;;3.91;80.29;97290.16;10147034;29;20064;-79
2021/01/04 22:30:37;;;;;;;35.88;21.80;;;;;;;3.92;80.13;97297.16;10147540;29;20185;-79
2021/01/04 22:35:57;;;;;;;31.15;22.00;;;;;;;3.97;79.54;97294.19;10147303;29;20061;-79
2021/01/04 22:41:22;;;;;;;29.65;19.42;;;;;;;3.97;79.80;97296.22;10132528;29;20504;-79
2021/01/04 22:46:42;;;;;;;30.40;20.25;;;;;;;3.95;79.87;97296.00;10132856;29;20112;-79
2021/01/04 22:52:03;;;;;;;32.42;20.67;;;;;;;3.95;80.08;97290.50;10145970;29;20098;-79
2021/01/04 22:57:22;;;;;;;30.30;20.00;;;;;;;3.91;80.15;97284.63;10146400;29;20060;-79
2021/01/04 23:02:42;;;;;;;30.80;19.75;;;;;;;3.92;79.70;97286.09;10146134;29;20100;-79
2021/01/04 23:08:03;;;;;;;25.63;16.27;;;;;;;3.95;79.78;97282.22;10146887;29;20064;-79
2021/01/04 23:13:23;;;;;;;20.30;14.48;;;;;;;3.95;80.10;97279.44;10147845;29;20065;-79
2021/01/04 23:18:43;;;;;;;22.08;15.60;;;;;;;3.92;80.21;97283.34;10146557;29;20056;-79
2021/01/04 23:24:03;;;;;;;23.35;16.17;;;;;;;3.88;79.50;97283.00;10132899;29;20124;-79
2021/01/04 23:29:23;;;;;;;19.75;13.18;;;;;;;3.90;79.90;97277.66;10146292;29;20519;-79
2021/01/04 23:34:43;;;;;;;20.15;13.48;;;;;;;3.89;79.68;97282.44;10147849;29;20416;-79
2021/01/04 23:40:05;;;;;;;23.50;16.20;;;;;;;3.89;79.87;97276.19;10147480;29;20068;-79
2021/01/04 23:45:26;;;;;;;28.60;18.58;;;;;;;3.89;79.89;97278.94;10133823;29;20609;-80
2021/01/04 23:50:46;;;;;;;30.13;18.85;;;;;;;3.89;80.08;97276.19;10147993;29;20064;-79
2021/01/04 23:56:10;;;;;;;35.25;21.20;;;;;;;3.89;80.07;97271.41;10122393;29;20064;-79
